createdAt,value
2017-08-10T00:00:21.583Z,21.87
2017-08-10T00:02:50.911Z,21.82
2017-08-10T00:07:48.700Z,21.79
2017-08-10T00:10:18.175Z,21.79
2017-08-10T00:12:47.634Z,21.83
2017-08-10T00:15:17.131Z,21.86
2017-08-10T00:17:46.560Z,21.89
2017-08-10T00:20:16.082Z,21.90
2017-08-10T00:22:45.529Z,21.91
2017-08-10T00:25:15.018Z,21.93
2017-08-10T00:27:44.476Z,21.93
2017-08-10T00:30:13.952Z,21.92
2017-08-10T00:32:43.392Z,21.98
2017-08-10T00:35:12.923Z,21.92
2017-08-10T00:37:42.359Z,21.86
2017-08-10T00:40:11.843Z,21.85
2017-08-10T00:42:41.302Z,21.80
2017-08-10T00:45:10.780Z,21.78
2017-08-10T00:47:40.216Z,21.73
2017-08-10T00:50:09.693Z,21.70
2017-08-10T00:52:39.185Z,21.67
2017-08-10T00:55:08.670Z,21.58
2017-08-10T00:57:38.111Z,21.54
2017-08-10T01:00:07.591Z,21.48
2017-08-10T01:02:36.872Z,21.38
2017-08-10T01:05:06.356Z,21.35
2017-08-10T01:07:35.785Z,21.25
2017-08-10T01:10:05.429Z,21.21
2017-08-10T01:12:34.879Z,21.13
2017-08-10T01:15:04.408Z,21.09
2017-08-10T01:17:33.849Z,21.06
2017-08-10T01:20:03.344Z,21.01
2017-08-10T01:22:32.768Z,21.02
2017-08-10T01:25:02.307Z,21.01
2017-08-10T01:27:31.862Z,21.00
2017-08-10T01:30:01.328Z,20.99
2017-08-10T01:32:30.765Z,20.94
2017-08-10T01:35:00.237Z,20.89
2017-08-10T01:37:29.679Z,20.85
2017-08-10T01:39:59.147Z,20.80
2017-08-10T01:42:28.589Z,20.75
2017-08-10T01:44:58.044Z,20.73
2017-08-10T01:47:27.506Z,20.69
2017-08-10T01:49:56.976Z,20.67
2017-08-10T01:52:26.396Z,20.58
2017-08-10T01:54:55.845Z,20.52
2017-08-10T01:57:25.302Z,20.46
2017-08-10T01:59:54.737Z,20.40
2017-08-10T02:02:24.176Z,20.33
2017-08-10T02:04:53.446Z,20.28
2017-08-10T02:07:22.897Z,20.23
2017-08-10T02:09:52.340Z,20.17
2017-08-10T02:12:21.790Z,20.14
2017-08-10T02:14:51.226Z,20.11
2017-08-10T02:17:20.660Z,20.11
2017-08-10T02:19:50.109Z,20.10
2017-08-10T02:22:19.551Z,20.08
2017-08-10T02:24:48.982Z,20.08
2017-08-10T02:27:18.448Z,20.10
2017-08-10T02:29:47.974Z,20.08
2017-08-10T02:32:17.448Z,20.03
2017-08-10T02:34:46.902Z,19.97
2017-08-10T02:37:16.375Z,19.95
2017-08-10T02:39:45.816Z,19.93
2017-08-10T02:42:15.289Z,19.90
2017-08-10T02:44:44.745Z,19.86
2017-08-10T02:47:14.191Z,19.82
2017-08-10T02:49:43.667Z,19.80
2017-08-10T02:52:13.144Z,19.77
2017-08-10T02:54:42.630Z,19.71
2017-08-10T02:57:12.088Z,19.65
2017-08-10T02:59:41.541Z,19.59
2017-08-10T03:02:11.000Z,19.53
2017-08-10T03:04:40.458Z,19.49
2017-08-10T03:07:09.916Z,19.42
2017-08-10T03:09:39.348Z,19.37
2017-08-10T03:12:08.782Z,19.32
2017-08-10T03:14:38.232Z,19.28
2017-08-10T03:17:07.672Z,19.24
2017-08-10T03:19:37.161Z,19.20
2017-08-10T03:22:06.628Z,19.15
2017-08-10T03:24:36.085Z,19.09
2017-08-10T03:27:05.536Z,19.05
2017-08-10T03:29:34.979Z,19.00
2017-08-10T03:32:04.417Z,18.97
2017-08-10T03:34:33.871Z,18.94
2017-08-10T03:37:03.321Z,18.92
2017-08-10T03:39:32.786Z,18.89
2017-08-10T03:42:02.230Z,18.86
2017-08-10T03:44:31.729Z,18.83
2017-08-10T03:47:01.172Z,18.80
2017-08-10T03:49:30.630Z,18.78
2017-08-10T03:52:00.071Z,18.78
2017-08-10T03:54:29.512Z,18.77
2017-08-10T03:56:58.949Z,18.75
2017-08-10T03:59:28.381Z,18.74
2017-08-10T04:01:57.810Z,18.75
2017-08-10T04:04:27.253Z,18.76
2017-08-10T04:06:56.692Z,18.77
2017-08-10T04:09:26.163Z,18.77
2017-08-10T04:11:55.645Z,18.82
2017-08-10T04:14:25.088Z,18.84
2017-08-10T04:16:54.532Z,18.86
2017-08-10T04:19:24.009Z,18.88
2017-08-10T04:21:53.457Z,18.92
2017-08-10T04:24:22.961Z,18.94
2017-08-10T04:26:52.408Z,18.99
2017-08-10T04:29:21.857Z,19.02
2017-08-10T04:31:51.292Z,19.09
2017-08-10T04:34:20.743Z,19.14
2017-08-10T04:36:50.196Z,19.20
2017-08-10T04:39:19.658Z,19.27
2017-08-10T04:41:49.144Z,19.37
2017-08-10T04:44:18.595Z,19.47
2017-08-10T04:46:48.046Z,19.59
2017-08-10T04:49:17.499Z,19.72
2017-08-10T04:51:46.939Z,19.84
2017-08-10T04:54:16.381Z,19.94
2017-08-10T04:56:45.836Z,20.02
2017-08-10T04:59:15.288Z,20.12
2017-08-10T05:01:44.741Z,20.20
2017-08-10T05:04:14.168Z,20.32
2017-08-10T05:06:43.625Z,20.45
2017-08-10T05:09:13.056Z,20.56
2017-08-10T05:11:42.506Z,20.67
2017-08-10T05:14:11.970Z,20.77
2017-08-10T05:16:41.401Z,20.87
2017-08-10T05:19:10.844Z,20.97
2017-08-10T05:21:40.297Z,21.04
2017-08-10T05:24:09.756Z,21.14
2017-08-10T05:26:39.217Z,21.22
2017-08-10T05:29:08.661Z,21.36
2017-08-10T05:31:38.124Z,21.48
2017-08-10T05:34:07.586Z,21.57
2017-08-10T05:36:37.020Z,21.74
2017-08-10T05:39:06.495Z,21.96
2017-08-10T05:41:35.924Z,22.14
2017-08-10T05:44:05.378Z,22.32
2017-08-10T05:46:34.799Z,22.42
2017-08-10T05:49:04.251Z,22.53
2017-08-10T05:51:33.695Z,22.69
2017-08-10T05:54:03.414Z,22.77
2017-08-10T05:56:32.852Z,22.83
2017-08-10T05:59:02.701Z,22.90
2017-08-10T06:01:32.344Z,22.99
2017-08-10T06:04:02.109Z,22.94
2017-08-10T06:06:32.028Z,22.92
2017-08-10T06:09:01.821Z,22.91
2017-08-10T06:11:31.262Z,22.86
2017-08-10T06:14:00.713Z,22.83
2017-08-10T06:16:30.157Z,22.64
2017-08-10T06:18:59.617Z,22.41
2017-08-10T06:21:29.062Z,22.30
2017-08-10T06:23:58.500Z,22.14
2017-08-10T06:26:27.941Z,22.08
2017-08-10T06:28:57.403Z,22.04
2017-08-10T06:31:26.856Z,21.88
2017-08-10T06:33:56.297Z,21.95
2017-08-10T06:36:25.943Z,21.99
2017-08-10T06:38:55.469Z,21.95
2017-08-10T06:41:25.071Z,21.97
2017-08-10T06:43:54.517Z,22.02
2017-08-10T06:46:23.954Z,22.03
2017-08-10T06:48:53.412Z,22.00
2017-08-10T06:51:22.855Z,22.03
2017-08-10T06:53:52.357Z,22.05
2017-08-10T06:56:21.797Z,22.10
2017-08-10T06:58:51.230Z,22.11
2017-08-10T07:01:20.775Z,22.25
2017-08-10T07:03:50.310Z,22.35
2017-08-10T07:06:19.865Z,22.47
2017-08-10T07:08:51.441Z,22.71
2017-08-10T07:11:21.016Z,22.89
2017-08-10T07:13:50.462Z,23.04
2017-08-10T07:16:20.751Z,23.14
2017-08-10T07:18:50.340Z,23.16
2017-08-10T07:21:20.158Z,23.17
2017-08-10T07:23:49.602Z,22.56
2017-08-10T07:26:19.052Z,22.23
2017-08-10T07:28:48.771Z,22.14
2017-08-10T07:31:18.215Z,22.26
2017-08-10T07:33:47.659Z,22.51
2017-08-10T07:36:17.101Z,22.51
2017-08-10T07:38:46.540Z,22.61
2017-08-10T07:41:16.000Z,22.70
2017-08-10T07:43:45.440Z,22.73
2017-08-10T07:46:14.883Z,23.04
2017-08-10T07:48:44.320Z,23.08
2017-08-10T07:51:13.766Z,23.28
2017-08-10T07:53:43.211Z,23.32
2017-08-10T07:56:12.656Z,23.38
2017-08-10T07:58:42.101Z,23.43
2017-08-10T08:01:11.556Z,23.48
2017-08-10T08:03:41.838Z,23.38
2017-08-10T08:06:11.269Z,23.46
2017-08-10T08:08:40.741Z,23.73
2017-08-10T08:11:10.264Z,23.79
2017-08-10T08:13:39.698Z,23.81
2017-08-10T08:16:09.146Z,23.94
2017-08-10T08:18:38.590Z,23.96
2017-08-10T08:21:08.038Z,24.03
2017-08-10T08:23:37.489Z,24.08
2017-08-10T08:26:06.956Z,24.08
2017-08-10T08:28:36.417Z,24.10
2017-08-10T08:31:05.852Z,24.09
2017-08-10T08:33:35.296Z,24.16
2017-08-10T08:36:04.787Z,24.25
2017-08-10T08:38:34.253Z,24.33
2017-08-10T08:41:03.735Z,24.60
2017-08-10T08:43:33.225Z,24.47
2017-08-10T08:46:02.662Z,24.31
2017-08-10T08:48:32.168Z,24.31
2017-08-10T08:51:01.630Z,24.27
2017-08-10T08:53:31.069Z,23.92
2017-08-10T08:56:00.525Z,23.89
2017-08-10T08:58:30.091Z,23.91
2017-08-10T09:00:59.525Z,23.91
2017-08-10T09:03:28.983Z,23.97
2017-08-10T09:05:58.441Z,23.98
2017-08-10T09:08:27.890Z,23.97
2017-08-10T09:10:57.340Z,24.04
2017-08-10T09:13:26.819Z,24.21
2017-08-10T09:15:56.303Z,24.33
2017-08-10T09:18:25.744Z,24.09
2017-08-10T09:20:55.224Z,24.27
2017-08-10T09:23:24.665Z,24.36
2017-08-10T09:25:54.121Z,24.60
2017-08-10T09:28:23.605Z,24.68
2017-08-10T09:30:53.060Z,24.92
2017-08-10T09:33:22.523Z,25.06
2017-08-10T09:35:51.972Z,25.10
2017-08-10T09:38:21.429Z,25.13
2017-08-10T09:40:50.885Z,25.25
2017-08-10T09:43:20.407Z,25.39
2017-08-10T09:45:49.960Z,25.54
2017-08-10T09:48:19.061Z,25.65
2017-08-10T09:50:48.517Z,25.61
2017-08-10T09:53:17.997Z,25.78
2017-08-10T09:55:47.477Z,25.49
2017-08-10T09:58:16.954Z,25.05
2017-08-10T10:00:46.401Z,25.14
2017-08-10T10:03:15.869Z,25.16
2017-08-10T10:05:45.322Z,25.08
2017-08-10T10:08:14.798Z,25.09
2017-08-10T10:10:44.251Z,25.36
2017-08-10T10:13:13.707Z,25.44
2017-08-10T10:15:43.160Z,25.49
2017-08-10T10:18:12.809Z,25.53
2017-08-10T10:20:43.313Z,25.62
2017-08-10T10:23:12.785Z,25.89
2017-08-10T10:25:42.983Z,26.36
2017-08-10T10:28:12.416Z,26.21
2017-08-10T10:30:41.889Z,26.35
2017-08-10T10:33:11.354Z,26.61
2017-08-10T10:35:40.823Z,27.00
2017-08-10T10:38:10.288Z,26.74
2017-08-10T10:40:39.787Z,27.15
2017-08-10T10:43:10.593Z,27.41
2017-08-10T10:45:40.260Z,27.07
2017-08-10T10:48:09.744Z,26.96
2017-08-10T10:50:40.074Z,26.89
2017-08-10T10:53:09.529Z,26.92
2017-08-10T10:55:39.957Z,26.99
2017-08-10T10:58:09.405Z,27.34
2017-08-10T11:00:40.187Z,27.69
2017-08-10T11:03:10.539Z,28.22
2017-08-10T11:05:40.663Z,28.48
2017-08-10T11:08:11.117Z,28.17
2017-08-10T11:10:41.254Z,28.19
2017-08-10T11:13:11.895Z,27.89
2017-08-10T11:15:41.509Z,27.87
2017-08-10T11:18:11.022Z,27.72
2017-08-10T11:20:40.594Z,27.64
2017-08-10T11:23:10.936Z,27.08
2017-08-10T11:25:40.624Z,26.92
2017-08-10T11:28:10.119Z,26.61
2017-08-10T11:30:39.628Z,26.61
2017-08-10T11:33:09.100Z,26.46
2017-08-10T11:35:38.614Z,26.63
2017-08-10T11:38:08.113Z,26.77
2017-08-10T11:40:37.610Z,27.05
2017-08-10T11:43:14.589Z,27.43
2017-08-10T11:45:44.207Z,27.72
2017-08-10T11:48:13.783Z,27.79
2017-08-10T11:50:43.522Z,28.35
2017-08-10T11:55:51.920Z,28.97
2017-08-10T11:58:21.487Z,29.00
2017-08-10T12:00:50.925Z,29.09
2017-08-10T12:03:20.406Z,29.62
2017-08-10T12:05:49.879Z,29.59
2017-08-10T12:08:19.336Z,30.30
2017-08-10T12:10:48.775Z,30.49
2017-08-10T12:13:18.250Z,30.69
2017-08-10T12:15:47.697Z,30.91
2017-08-10T12:18:17.239Z,31.16
2017-08-10T12:20:46.700Z,31.06
2017-08-10T12:23:16.997Z,31.22
2017-08-10T12:25:46.448Z,31.15
2017-08-10T12:28:16.010Z,31.58
2017-08-10T12:30:45.471Z,32.48
2017-08-10T12:33:14.921Z,33.42
2017-08-10T12:35:44.364Z,33.78
2017-08-10T12:38:13.830Z,34.36
2017-08-10T12:40:43.281Z,35.14
2017-08-10T12:43:12.824Z,35.57
2017-08-10T12:45:42.248Z,35.45
2017-08-10T12:48:11.687Z,35.98
2017-08-10T12:50:41.148Z,36.62
2017-08-10T12:53:10.590Z,36.41
2017-08-10T12:55:40.061Z,34.68
2017-08-10T12:58:09.519Z,33.31
2017-08-10T13:00:38.957Z,32.05
2017-08-10T13:03:08.427Z,30.70
2017-08-10T13:05:37.873Z,30.00
2017-08-10T13:08:07.351Z,29.52
2017-08-10T13:10:36.797Z,28.89
2017-08-10T13:13:06.253Z,27.75
2017-08-10T13:15:35.712Z,27.67
2017-08-10T13:18:05.260Z,27.33
2017-08-10T13:20:34.705Z,26.96
2017-08-10T13:23:04.155Z,26.34
2017-08-10T13:25:33.723Z,25.74
2017-08-10T13:28:02.978Z,25.80
2017-08-10T13:30:32.417Z,25.62
2017-08-10T13:33:01.694Z,25.39
2017-08-10T13:35:30.974Z,25.07
2017-08-10T13:38:00.518Z,25.08
2017-08-10T13:40:29.949Z,25.13
2017-08-10T13:42:59.384Z,25.02
2017-08-10T13:45:28.836Z,24.96
2017-08-10T13:47:58.335Z,24.73
2017-08-10T13:50:27.768Z,24.34
2017-08-10T13:52:57.233Z,23.95
2017-08-10T13:55:26.689Z,23.71
2017-08-10T13:57:55.960Z,23.49
2017-08-10T14:00:25.419Z,23.33
2017-08-10T14:02:54.884Z,23.22
2017-08-10T14:05:24.371Z,23.18
2017-08-10T14:07:53.872Z,23.17
2017-08-10T14:10:23.385Z,23.16
2017-08-10T14:12:52.920Z,23.14
2017-08-10T14:15:22.432Z,23.23
2017-08-10T14:17:51.902Z,23.27
2017-08-10T14:20:21.403Z,23.38
2017-08-10T14:22:50.851Z,23.53
2017-08-10T14:25:20.353Z,23.72
2017-08-10T14:27:49.792Z,24.04
2017-08-10T14:30:19.376Z,24.44
2017-08-10T14:32:48.824Z,25.68
2017-08-10T14:35:18.313Z,27.13
2017-08-10T14:37:47.735Z,29.01
2017-08-10T14:40:17.238Z,30.63
2017-08-10T14:42:46.662Z,32.70
2017-08-10T14:45:16.144Z,34.30
2017-08-10T14:47:45.628Z,35.04
2017-08-10T14:50:15.085Z,35.88
2017-08-10T14:52:44.519Z,37.15
2017-08-10T14:55:14.028Z,36.74
2017-08-10T14:57:43.460Z,36.27
2017-08-10T15:00:12.945Z,35.89
2017-08-10T15:02:42.387Z,36.33
2017-08-10T15:05:11.866Z,35.40
2017-08-10T15:07:41.304Z,35.61
2017-08-10T15:10:10.797Z,35.60
2017-08-10T15:15:18.881Z,33.82
2017-08-10T15:17:48.322Z,34.11
2017-08-10T15:20:17.802Z,33.20
2017-08-10T15:22:47.261Z,33.22
2017-08-10T15:25:16.588Z,31.66
2017-08-10T15:27:46.022Z,30.71
2017-08-10T15:30:15.500Z,29.81
2017-08-10T15:32:44.948Z,29.80
2017-08-10T15:35:14.443Z,28.91
2017-08-10T15:37:43.917Z,28.85
2017-08-10T15:40:13.447Z,28.33
2017-08-10T15:42:42.988Z,28.03
2017-08-10T15:45:12.563Z,27.58
2017-08-10T15:47:41.982Z,27.70
2017-08-10T15:50:12.120Z,27.63
2017-08-10T15:52:41.568Z,27.26
2017-08-10T15:55:11.098Z,27.29
2017-08-10T15:57:40.607Z,26.97
2017-08-10T16:00:10.080Z,26.96
2017-08-10T16:02:39.523Z,26.57
2017-08-10T16:05:09.014Z,26.01
2017-08-10T16:07:38.465Z,26.06
2017-08-10T16:10:07.943Z,25.70
2017-08-10T16:12:37.415Z,25.78
2017-08-10T16:15:06.901Z,25.36
2017-08-10T16:17:36.353Z,25.49
2017-08-10T16:20:05.854Z,25.47
2017-08-10T16:22:35.291Z,25.29
2017-08-10T16:25:04.785Z,25.16
2017-08-10T16:27:34.245Z,25.07
2017-08-10T16:30:03.730Z,24.95
2017-08-10T16:32:33.183Z,24.96
2017-08-10T16:35:02.694Z,24.91
2017-08-10T16:37:32.144Z,24.69
2017-08-10T16:40:01.727Z,24.47
2017-08-10T16:42:31.180Z,24.55
2017-08-10T16:45:00.630Z,24.67
2017-08-10T16:47:30.102Z,24.73
2017-08-10T16:49:59.541Z,24.65
2017-08-10T16:52:29.090Z,24.61
2017-08-10T16:54:58.531Z,24.66
2017-08-10T16:57:27.969Z,24.55
2017-08-10T16:59:57.441Z,24.20
2017-08-10T17:02:26.969Z,23.99
2017-08-10T17:04:56.542Z,23.94
2017-08-10T17:07:25.976Z,23.74
2017-08-10T17:09:55.457Z,23.61
2017-08-10T17:12:24.977Z,23.46
2017-08-10T17:14:54.440Z,23.43
2017-08-10T17:17:23.900Z,23.36
2017-08-10T17:19:53.376Z,23.26
2017-08-10T17:22:22.858Z,23.10
2017-08-10T17:24:52.316Z,22.87
2017-08-10T17:27:21.788Z,22.91
2017-08-10T17:29:51.265Z,22.79
2017-08-10T17:32:20.959Z,22.67
2017-08-10T17:34:50.450Z,22.40
2017-08-10T17:37:19.885Z,22.20
2017-08-10T17:39:49.341Z,22.11
2017-08-10T17:42:18.810Z,21.93
2017-08-10T17:44:48.091Z,21.69
2017-08-10T17:47:17.542Z,21.56
2017-08-10T17:49:47.012Z,21.30
2017-08-10T17:52:16.463Z,21.19
2017-08-10T17:54:45.949Z,20.98
2017-08-10T17:57:15.393Z,20.87
2017-08-10T17:59:44.855Z,20.79
2017-08-10T18:02:14.328Z,20.70
2017-08-10T18:04:43.797Z,20.63
2017-08-10T18:07:13.257Z,20.56
2017-08-10T18:09:42.732Z,20.50
2017-08-10T18:12:12.193Z,20.47
2017-08-10T18:14:41.657Z,20.41
2017-08-10T18:17:11.165Z,20.38
2017-08-10T18:19:40.615Z,20.37
2017-08-10T18:22:10.069Z,20.33
2017-08-10T18:24:39.525Z,20.29
2017-08-10T18:27:08.985Z,20.24
2017-08-10T18:29:38.446Z,20.17
2017-08-10T18:32:07.902Z,20.12
2017-08-10T18:34:37.377Z,20.10
2017-08-10T18:37:06.828Z,20.11
2017-08-10T18:39:36.296Z,19.99
2017-08-10T18:42:05.820Z,19.94
2017-08-10T18:44:35.290Z,19.90
2017-08-10T18:47:04.844Z,19.86
2017-08-10T18:49:34.336Z,19.81
2017-08-10T18:52:03.793Z,19.76
2017-08-10T18:54:33.285Z,19.70
2017-08-10T18:57:02.770Z,19.67
2017-08-10T18:59:32.227Z,19.67
2017-08-10T19:02:01.676Z,19.67
2017-08-10T19:04:31.165Z,19.64
2017-08-10T19:07:00.608Z,19.60
2017-08-10T19:09:30.075Z,19.56
2017-08-10T19:11:59.538Z,19.52
2017-08-10T19:14:29.002Z,19.48
2017-08-10T19:16:58.452Z,19.47
2017-08-10T19:19:27.905Z,19.46
2017-08-10T19:21:57.376Z,19.43
2017-08-10T19:24:26.837Z,19.40
2017-08-10T19:26:56.369Z,19.40
2017-08-10T19:29:26.176Z,19.41
2017-08-10T19:31:55.756Z,19.42
2017-08-10T19:34:25.200Z,19.35
2017-08-10T19:36:54.674Z,19.40
2017-08-10T19:39:24.125Z,19.42
2017-08-10T19:41:53.591Z,19.48
2017-08-10T19:44:23.078Z,19.46
2017-08-10T19:46:52.570Z,19.46
2017-08-10T19:49:22.050Z,19.44
2017-08-10T19:51:51.516Z,19.38
2017-08-10T19:54:20.988Z,19.43
2017-08-10T19:56:50.456Z,19.29
2017-08-10T19:59:19.905Z,19.20
2017-08-10T20:01:49.457Z,19.10
2017-08-10T20:04:18.901Z,18.94
2017-08-10T20:06:48.360Z,18.96
2017-08-10T20:09:17.810Z,18.89
2017-08-10T20:11:47.273Z,18.81
2017-08-10T20:14:16.730Z,18.76
2017-08-10T20:16:46.218Z,18.43
2017-08-10T20:19:15.679Z,18.24
2017-08-10T20:21:45.141Z,18.15
2017-08-10T20:24:14.600Z,18.07
2017-08-10T20:26:44.133Z,17.89
2017-08-10T20:29:13.607Z,17.62
2017-08-10T20:31:43.042Z,17.37
2017-08-10T20:34:12.511Z,17.26
2017-08-10T20:36:41.951Z,17.22
2017-08-10T20:39:11.406Z,17.09
2017-08-10T20:41:40.864Z,16.91
2017-08-10T20:44:10.322Z,16.81
2017-08-10T20:46:39.770Z,16.88
2017-08-10T20:49:09.228Z,16.78
2017-08-10T20:51:38.688Z,16.64
2017-08-10T20:54:08.153Z,16.66
2017-08-10T20:56:37.584Z,16.71
2017-08-10T20:59:07.030Z,16.58
2017-08-10T21:01:36.513Z,16.62
2017-08-10T21:04:05.965Z,16.57
2017-08-10T21:06:35.419Z,16.48
2017-08-10T21:09:05.198Z,16.49
2017-08-10T21:11:34.665Z,16.41
2017-08-10T21:14:04.076Z,16.41
2017-08-10T21:16:33.559Z,16.34
2017-08-10T21:19:02.995Z,16.33
2017-08-10T21:21:32.441Z,16.31
2017-08-10T21:24:01.899Z,16.27
2017-08-10T21:26:31.355Z,16.25
2017-08-10T21:29:00.813Z,16.33
2017-08-10T21:31:30.559Z,16.35
2017-08-10T21:34:00.297Z,16.34
2017-08-10T21:36:30.761Z,16.27
2017-08-10T21:39:00.304Z,16.17
2017-08-10T21:41:29.767Z,16.21
2017-08-10T21:43:59.521Z,16.16
2017-08-10T21:46:29.265Z,16.11
2017-08-10T21:48:58.996Z,16.21
2017-08-10T21:51:28.432Z,16.21
2017-08-10T21:53:57.889Z,16.06
2017-08-10T21:56:27.351Z,16.07
2017-08-10T21:58:56.782Z,16.00
2017-08-10T22:01:26.246Z,15.95
2017-08-10T22:03:55.496Z,15.84
2017-08-10T22:06:25.225Z,15.89
2017-08-10T22:08:54.792Z,15.84
2017-08-10T22:11:24.535Z,15.76
2017-08-10T22:13:53.976Z,15.82
2017-08-10T22:16:23.721Z,15.79
2017-08-10T22:18:53.466Z,15.80
2017-08-10T22:21:23.282Z,15.79
2017-08-10T22:23:53.020Z,15.78
2017-08-10T22:26:22.757Z,15.86
2017-08-10T22:28:52.339Z,15.76
2017-08-10T22:31:22.074Z,15.71
2017-08-10T22:33:51.797Z,15.79
2017-08-10T22:36:21.260Z,15.77
2017-08-10T22:38:51.001Z,15.83
2017-08-10T22:41:20.441Z,15.81
2017-08-10T22:43:50.178Z,15.63
2017-08-10T22:46:19.971Z,15.73
2017-08-10T22:48:49.424Z,15.61
2017-08-10T22:51:18.744Z,15.63
2017-08-10T22:53:48.184Z,15.59
2017-08-10T22:56:17.904Z,15.63
2017-08-10T22:58:47.655Z,15.64
2017-08-10T23:01:17.379Z,15.60
2017-08-10T23:03:46.773Z,15.62
2017-08-10T23:06:16.515Z,15.59
2017-08-10T23:08:46.253Z,15.57
2017-08-10T23:11:15.831Z,15.57
2017-08-10T23:13:45.573Z,15.64
2017-08-10T23:16:15.385Z,15.62
2017-08-10T23:18:45.113Z,15.56
2017-08-10T23:21:14.906Z,15.60
2017-08-10T23:23:44.617Z,15.56
2017-08-10T23:26:14.351Z,15.57
2017-08-10T23:28:44.180Z,15.53
2017-08-10T23:31:13.890Z,15.60
2017-08-10T23:33:43.639Z,15.49
2017-08-10T23:36:13.084Z,15.46
2017-08-10T23:38:42.840Z,15.52
2017-08-10T23:41:12.630Z,15.44
2017-08-10T23:43:42.380Z,15.43
2017-08-10T23:46:13.073Z,15.47
2017-08-10T23:48:42.823Z,15.42
2017-08-10T23:51:12.537Z,15.42
2017-08-10T23:53:42.284Z,15.49
2017-08-10T23:56:12.017Z,15.53
2017-08-10T23:58:41.752Z,15.57
